Time;durP1;ratioP1;P1;durP2;ratioP2;P2;SDS_P1;SDS_P2;PMS_P1;PMS_P2;Temp;Humidity;BMP_temperature;BMP_pressure;BME280_temperature;BME280_humidity;BME280_pressure;Samples;Min_cycle;Max_cycle;Signal;HPM_P1;HPM_P2
2022/05/07 00:02:14;;;;;;;9.03;8.23;;;21.40;47.10;23.00;101499.00;;;;5028776;28;20286;-49
2022/05/07 00:04:39;;;;;;;9.27;8.37;;;21.30;47.20;23.00;101507.00;;;;5028587;28;20218;-50
2022/05/07 00:07:05;;;;;;;9.47;8.67;;;21.30;47.40;23.00;101509.00;;;;5028856;28;20706;-48
2022/05/07 00:09:32;;;;;;;9.50;8.70;;;21.30;47.30;23.00;101500.00;;;;5029234;28;20167;-49
2022/05/07 00:11:58;;;;;;;8.70;8.00;;;21.30;47.30;22.90;101496.00;;;;5028932;28;20177;-48
2022/05/07 00:14:24;;;;;;;9.40;8.50;;;21.30;47.30;22.90;101430.00;;;;5028577;28;20202;-49
2022/05/07 00:19:34;;;;;;;9.67;8.73;;;21.20;47.20;22.80;101498.00;;;;5030823;28;20205;-48
2022/05/07 00:22:00;;;;;;;9.53;8.63;;;21.30;47.40;22.80;101490.00;;;;5027745;28;20186;-48
2022/05/07 00:24:26;;;;;;;9.70;9.00;;;21.20;47.30;22.80;101486.00;;;;5028577;28;20213;-46
2022/05/07 00:26:52;;;;;;;8.83;8.10;;;21.10;46.90;22.80;101497.00;;;;5028203;28;20252;-49
2022/05/07 00:29:17;;;;;;;8.90;8.20;;;21.10;47.30;22.70;101491.00;;;;5028175;28;20168;-49
2022/05/07 00:31:43;;;;;;;8.30;7.60;;;21.00;47.60;22.70;101492.00;;;;5028368;28;20748;-49
2022/05/07 00:34:09;;;;;;;9.67;8.37;;;21.00;47.60;22.70;101492.00;;;;5028237;28;20225;-48
2022/05/07 00:36:34;;;;;;;8.60;7.77;;;21.00;47.60;22.70;101492.00;;;;5028125;28;20175;-46
2022/05/07 00:39:00;;;;;;;8.17;7.57;;;21.00;47.70;22.60;101486.00;;;;5028324;28;20225;-49
2022/05/07 00:41:26;;;;;;;8.20;7.50;;;20.90;47.70;22.60;101484.00;;;;5028093;28;20171;-47
2022/05/07 00:43:52;;;;;;;8.77;8.00;;;20.90;47.70;22.60;101474.00;;;;5027653;28;20198;-49
2022/05/07 00:46:23;;;;;;;8.53;7.83;;;21.00;47.80;22.60;101480.00;;;;5027966;28;20230;-48
2022/05/07 00:48:49;;;;;;;9.43;8.63;;;20.90;47.70;22.50;101475.00;;;;5026661;28;20178;-47
2022/05/07 00:51:33;;;;;;;9.70;8.70;;;21.00;47.80;22.50;101480.00;;;;5027974;28;20610;-49
2022/05/07 00:54:00;;;;;;;9.27;8.37;;;21.00;47.60;22.50;101479.00;;;;5028128;28;20198;-51
2022/05/07 00:56:25;;;;;;;9.33;8.47;;;20.90;47.50;22.50;101470.00;;;;5026205;28;20179;-47
2022/05/07 00:58:51;;;;;;;8.60;7.80;;;20.90;47.70;22.40;101470.00;;;;5027983;28;20179;-48
2022/05/07 01:01:17;;;;;;;8.60;7.90;;;20.80;47.60;22.40;101470.00;;;;5028047;28;20592;-48
2022/05/07 01:03:45;;;;;;;9.43;8.60;;;20.90;47.70;22.40;101464.00;;;;5026839;28;20196;-49
2022/05/07 01:06:11;;;;;;;9.00;8.10;;;20.90;47.60;22.30;101468.00;;;;5026548;28;20199;-50
2022/05/07 01:08:37;;;;;;;9.37;8.57;;;20.90;47.80;22.10;101468.00;;;;5026567;28;20186;-50
2022/05/07 01:11:03;;;;;;;9.00;8.20;;;20.90;47.70;22.30;101468.00;;;;5026468;28;20181;-49
2022/05/07 01:13:28;;;;;;;8.60;7.80;;;20.80;47.60;22.30;101472.00;;;;5027637;28;20632;-49
2022/05/07 01:15:55;;;;;;;9.00;8.20;;;20.80;47.80;22.20;101467.00;;;;5027256;28;20207;-49
2022/05/07 01:18:21;;;;;;;8.33;7.73;;;20.80;47.50;22.20;101464.00;;;;5026604;28;20206;-49
2022/05/07 01:20:47;;;;;;;9.20;8.30;;;20.90;48.30;22.20;101457.00;;;;5027702;28;20189;-50
2022/05/07 01:23:12;;;;;;;10.63;9.63;;;20.90;47.60;22.20;101451.00;;;;5027658;28;20530;-49
2022/05/07 01:25:38;;;;;;;11.47;10.27;;;20.80;47.50;22.20;101466.00;;;;5025846;28;20669;-46
2022/05/07 01:28:04;;;;;;;10.13;9.33;;;20.80;47.50;22.20;101459.00;;;;5027200;28;20174;-47
2022/05/07 01:30:30;;;;;;;9.87;8.97;;;20.90;47.40;21.90;101452.00;;;;5027889;28;20175;-48
2022/05/07 01:32:56;;;;;;;9.60;8.80;;;20.80;47.40;22.10;101469.00;;;;5027330;28;20185;-46
2022/05/07 01:35:22;;;;;;;9.47;8.57;;;20.80;47.30;22.10;101464.00;;;;5027417;28;20193;-49
2022/05/07 01:37:47;;;;;;;9.70;8.90;;;20.70;47.40;21.90;101465.00;;;;5027122;28;20180;-50
2022/05/07 01:40:13;;;;;;;9.37;8.47;;;20.80;47.50;22.00;101449.00;;;;5027185;28;20187;-50
2022/05/07 01:42:41;;;;;;;9.23;8.43;;;20.70;47.30;22.00;101452.00;;;;5027253;28;20270;-50
2022/05/07 01:45:07;;;;;;;9.17;8.27;;;20.80;47.40;22.00;101446.00;;;;5027344;28;20206;-49
2022/05/07 01:50:24;;;;;;;8.77;7.97;;;20.70;47.30;21.90;101457.00;;;;5026128;28;20169;-47
2022/05/07 01:52:49;;;;;;;8.70;7.90;;;20.70;47.40;21.90;101460.00;;;;5027188;28;20179;-51
2022/05/07 01:55:15;;;;;;;8.97;8.17;;;20.70;47.40;21.90;101459.00;;;;5027069;28;20200;-48
2022/05/07 01:57:41;;;;;;;8.63;7.93;;;20.70;47.30;21.90;101456.00;;;;5027145;28;20652;-50
2022/05/07 02:00:08;;;;;;;8.97;8.27;;;20.70;47.30;21.90;101455.00;;;;5025736;28;20186;-49
2022/05/07 02:02:34;;;;;;;8.63;7.93;;;20.70;47.20;21.80;101453.00;;;;5027261;28;20175;-50
2022/05/07 02:05:00;;;;;;;8.83;8.03;;;20.70;47.30;21.80;101441.00;;;;5027020;28;20209;-51
2022/05/07 02:07:25;;;;;;;9.00;8.30;;;20.60;47.80;21.80;101453.00;;;;5026971;28;20226;-49
2022/05/07 02:09:51;;;;;;;8.43;7.73;;;20.70;47.20;21.80;101460.00;;;;5026692;28;20822;-50
2022/05/07 02:12:17;;;;;;;9.33;8.63;;;20.60;47.10;21.80;101460.00;;;;5027036;28;20176;-50
2022/05/07 02:14:43;;;;;;;8.60;7.90;;;20.60;47.10;21.70;101448.00;;;;5027698;28;20199;-48
2022/05/07 02:17:09;;;;;;;9.20;8.40;;;20.60;47.20;21.70;101456.00;;;;5030534;28;20188;-50
2022/05/07 02:19:35;;;;;;;9.10;8.40;;;20.60;47.20;21.70;101453.00;;;;5030429;28;20178;-49
2022/05/07 02:22:00;;;;;;;9.23;8.43;;;20.60;47.20;21.70;101442.00;;;;5030660;28;20180;-49
2022/05/07 02:24:26;;;;;;;8.47;7.77;;;20.60;47.20;21.70;101448.00;;;;5030880;28;20200;-50
2022/05/07 02:26:52;;;;;;;9.00;8.30;;;20.50;47.10;21.60;101447.00;;;;5034668;28;20214;-48
2022/05/07 02:29:18;;;;;;;8.97;8.17;;;20.50;47.10;21.60;101447.00;;;;5031404;28;20179;-48
2022/05/07 02:32:03;;;;;;;9.30;8.50;;;20.50;47.20;21.60;101441.00;;;;5032055;28;20201;-49
2022/05/07 02:34:32;;;;;;;8.93;8.13;;;20.50;47.10;21.60;101447.00;;;;5032215;28;20194;-51
2022/05/07 02:36:58;;;;;;;9.40;8.60;;;20.50;47.20;21.50;101451.00;;;;5029431;28;20226;-48
2022/05/07 02:39:24;;;;;;;8.50;7.80;;;20.40;47.10;21.50;101448.00;;;;5030502;28;20274;-49
2022/05/07 02:44:34;;;;;;;8.97;8.27;;;20.40;47.10;21.50;101445.00;;;;5029839;28;20202;-49
2022/05/07 02:47:00;;;;;;;10.87;8.37;;;20.40;47.20;21.40;101450.00;;;;5030029;28;20208;-48
2022/05/07 02:49:25;;;;;;;8.37;7.77;;;20.40;47.10;21.40;101449.00;;;;5030299;28;20168;-48
2022/05/07 02:51:51;;;;;;;8.67;7.97;;;20.30;47.20;21.40;101451.00;;;;5030036;28;20176;-51
2022/05/07 02:54:17;;;;;;;8.23;7.53;;;20.30;47.20;21.40;101453.00;;;;5029998;28;20575;-51
2022/05/07 02:56:42;;;;;;;8.37;7.67;;;20.30;47.20;21.30;101459.00;;;;5030187;28;20242;-48
2022/05/07 02:59:08;;;;;;;8.30;7.60;;;20.30;47.20;21.30;101444.00;;;;5030081;28;20548;-48
2022/05/07 03:01:34;;;;;;;8.30;7.60;;;20.30;47.20;21.30;101453.00;;;;5029955;28;20180;-48
2022/05/07 03:04:00;;;;;;;9.03;8.23;;;20.30;47.20;21.30;101457.00;;;;5029095;28;20289;-50
2022/05/07 03:06:25;;;;;;;9.47;8.67;;;20.30;47.10;21.30;101448.00;;;;5029884;28;20199;-48
2022/05/07 03:08:52;;;;;;;8.03;7.43;;;20.20;47.10;21.20;101450.00;;;;5030124;28;20182;-52
2022/05/07 03:11:18;;;;;;;9.33;8.43;;;20.20;47.10;21.20;101454.00;;;;5029946;28;20180;-49
2022/05/07 03:13:44;;;;;;;8.93;8.23;;;20.20;47.20;21.20;101447.00;;;;5029550;28;20176;-49
2022/05/07 03:16:09;;;;;;;8.53;7.83;;;20.20;47.20;21.20;101451.00;;;;5029243;28;20706;-51
2022/05/07 03:18:35;;;;;;;8.60;7.90;;;20.20;47.10;21.20;101442.00;;;;5030091;28;20179;-49
2022/05/07 03:21:01;;;;;;;9.30;8.50;;;20.10;47.10;21.10;101444.00;;;;5029444;28;20662;-49
2022/05/07 03:23:27;;;;;;;8.50;7.80;;;20.10;47.20;21.10;101445.00;;;;5028525;28;20186;-48
2022/05/07 03:25:53;;;;;;;8.40;7.70;;;20.10;47.10;21.10;101454.00;;;;5028335;28;20205;-48
2022/05/07 03:28:19;;;;;;;8.07;7.37;;;20.10;47.20;21.10;101446.00;;;;5029076;28;20311;-50
2022/05/07 03:30:45;;;;;;;8.63;7.93;;;20.10;47.20;21.10;101455.00;;;;5031804;28;20540;-47
2022/05/07 03:33:10;;;;;;;9.03;8.33;;;20.00;47.20;21.10;101452.00;;;;5033945;28;20179;-48
2022/05/07 03:35:36;;;;;;;7.87;7.17;;;19.90;47.30;21.00;101449.00;;;;5028942;28;20257;-48
2022/05/07 03:38:02;;;;;;;8.90;8.10;;;19.90;47.50;21.00;101443.00;;;;5028916;28;20182;-49
2022/05/07 03:40:28;;;;;;;9.10;8.30;;;19.90;47.50;21.00;101453.00;;;;5038229;28;20186;-50
2022/05/07 03:42:54;;;;;;;8.63;7.83;;;20.00;47.50;21.00;101450.00;;;;5029204;28;20207;-51
2022/05/07 03:45:20;;;;;;;8.60;7.80;;;20.00;47.40;20.90;101451.00;;;;5028938;28;20231;-48
2022/05/07 03:47:46;;;;;;;8.57;7.87;;;19.90;47.20;20.90;101452.00;;;;5028358;28;20732;-49
2022/05/07 03:50:11;;;;;;;17.97;16.17;;;19.90;47.30;20.90;101449.00;;;;5028740;28;20168;-49
2022/05/07 03:55:22;;;;;;;16.60;15.10;;;19.80;47.40;20.90;101452.00;;;;5030532;28;20252;-48
2022/05/07 03:57:47;;;;;;;16.47;15.07;;;19.80;47.50;20.80;101459.00;;;;5029501;28;20258;-47
2022/05/07 04:00:13;;;;;;;11.10;10.20;;;19.80;47.50;20.80;101448.00;;;;5028518;28;20744;-51
2022/05/07 04:02:40;;;;;;;10.90;10.00;;;19.80;47.50;20.80;101446.00;;;;5028949;28;20183;-49
2022/05/07 04:05:05;;;;;;;11.00;10.00;;;19.80;47.50;20.80;101462.00;;;;5029008;28;20202;-48
2022/05/07 04:07:31;;;;;;;10.10;9.30;;;19.80;47.40;20.80;101443.00;;;;5028321;28;20203;-48
2022/05/07 04:09:57;;;;;;;9.93;9.13;;;19.80;47.50;20.70;101445.00;;;;5028021;28;20702;-51
2022/05/07 04:12:23;;;;;;;10.80;9.90;;;19.80;47.60;20.70;101443.00;;;;5028262;28;20567;-52
2022/05/07 04:14:49;;;;;;;10.20;9.30;;;19.70;47.40;20.70;101448.00;;;;5028254;28;20567;-50
2022/05/07 04:17:14;;;;;;;9.73;8.93;;;19.60;47.30;20.70;101454.00;;;;5027903;28;20244;-49
2022/05/07 04:19:40;;;;;;;8.30;7.60;;;19.60;47.50;20.70;101447.00;;;;5028050;28;20175;-49
2022/05/07 04:22:06;;;;;;;8.47;7.77;;;19.70;47.50;20.70;101450.00;;;;5028379;28;20632;-49
2022/05/07 04:24:33;;;;;;;7.77;7.17;;;19.60;47.50;20.60;101451.00;;;;5028323;28;20282;-51
2022/05/07 04:27:00;;;;;;;8.60;7.80;;;19.60;47.60;20.70;101455.00;;;;5027894;28;20207;-51
2022/05/07 04:29:25;;;;;;;7.90;7.17;;;19.60;47.70;20.70;101444.00;;;;5028003;28;20163;-50
2022/05/07 04:31:51;;;;;;;7.77;6.90;;;19.60;47.70;20.70;101450.00;;;;5028742;28;20617;-49
2022/05/07 04:34:17;;;;;;;7.67;6.93;;;19.60;47.70;20.70;101453.00;;;;5028056;28;20198;-51
2022/05/07 04:36:43;;;;;;;7.93;6.60;;;19.60;47.70;20.60;101444.00;;;;5032388;28;20748;-49
2022/05/07 04:39:08;;;;;;;7.40;6.63;;;19.60;47.70;20.60;101454.00;;;;5027831;28;20797;-49
2022/05/07 04:41:34;;;;;;;7.67;6.43;;;19.60;47.90;20.60;101458.00;;;;5028491;28;20171;-50
2022/05/07 04:44:03;;;;;;;15.77;6.90;;;19.60;47.90;20.60;101458.00;;;;5027998;28;20859;-50
2022/05/07 04:46:28;;;;;;;12.47;6.40;;;19.60;48.00;20.60;101456.00;;;;5028135;28;20229;-50
2022/05/07 04:48:54;;;;;;;6.37;5.87;;;19.60;47.90;20.60;101465.00;;;;5028015;28;20224;-50
2022/05/07 04:51:20;;;;;;;7.57;6.13;;;19.50;47.90;20.60;101463.00;;;;5028174;28;20175;-50
2022/05/07 04:53:45;;;;;;;8.50;6.40;;;19.50;48.00;20.60;101463.00;;;;5027774;28;20167;-51
2022/05/07 04:56:11;;;;;;;11.40;6.30;;;19.50;48.00;20.60;101463.00;;;;5027586;28;20225;-51
2022/05/07 04:58:37;;;;;;;7.60;6.03;;;19.50;48.10;20.60;101465.00;;;;5027872;28;20301;-51
2022/05/07 05:01:03;;;;;;;6.37;5.70;;;19.50;48.10;20.60;101461.00;;;;5027834;28;20532;-50
2022/05/07 05:03:29;;;;;;;8.27;5.40;;;19.50;48.20;20.60;101463.00;;;;5027993;28;20201;-50
2022/05/07 05:05:54;;;;;;;6.97;5.90;;;19.50;48.20;20.60;101460.00;;;;5027321;28;20190;-50
2022/05/07 05:08:21;;;;;;;6.07;5.43;;;19.50;48.40;20.60;101464.00;;;;5027428;28;20683;-51
2022/05/07 05:10:47;;;;;;;6.17;5.57;;;19.50;48.30;20.50;101469.00;;;;5031302;28;20185;-51
2022/05/07 05:13:12;;;;;;;6.20;5.60;;;19.50;48.30;20.50;101467.00;;;;5034995;28;20181;-51
2022/05/07 05:15:38;;;;;;;6.07;5.47;;;19.50;48.50;20.50;101468.00;;;;5027406;28;20199;-51
2022/05/07 05:18:04;;;;;;;6.67;5.37;;;19.40;48.50;20.50;101464.00;;;;5025979;28;20334;-51
2022/05/07 05:20:30;;;;;;;6.60;5.60;;;19.40;48.50;20.50;101460.00;;;;5026129;28;20225;-50
2022/05/07 05:22:56;;;;;;;6.60;5.37;;;19.40;48.50;20.50;101474.00;;;;5027805;28;20178;-50
2022/05/07 05:25:21;;;;;;;6.20;5.70;;;19.40;48.50;20.50;101470.00;;;;5027081;28;20198;-50
2022/05/07 05:27:48;;;;;;;7.40;5.60;;;19.40;48.50;20.50;101474.00;;;;5027415;28;20210;-50
2022/05/07 05:30:13;;;;;;;5.83;5.20;;;19.30;48.40;20.50;101408.00;;;;5026982;28;20178;-51
2022/05/07 05:32:39;;;;;;;9.27;5.80;;;19.30;48.40;20.50;101474.00;;;;5027476;28;20170;-51
2022/05/07 05:35:05;;;;;;;5.97;5.27;;;19.30;48.40;20.40;101475.00;;;;5027427;28;20199;-50
2022/05/07 05:37:31;;;;;;;5.97;5.30;;;19.30;48.50;20.40;101480.00;;;;5026914;28;20178;-52
2022/05/07 05:39:57;;;;;;;6.10;5.50;;;19.30;48.70;20.40;101484.00;;;;5027157;28;20178;-52
2022/05/07 05:42:22;;;;;;;5.57;5.10;;;19.30;48.50;20.40;101483.00;;;;5027561;28;20179;-50
2022/05/07 05:44:48;;;;;;;5.63;5.20;;;19.30;48.60;20.40;101501.00;;;;5027479;28;20781;-50
2022/05/07 05:47:14;;;;;;;5.60;5.10;;;19.30;48.80;20.40;101495.00;;;;5027098;28;20203;-51
2022/05/07 05:49:39;;;;;;;5.43;4.90;;;19.30;48.70;20.40;101502.00;;;;5027072;28;20556;-50
2022/05/07 05:52:06;;;;;;;5.40;5.00;;;19.20;48.70;20.40;101494.00;;;;5031168;28;20549;-51
2022/05/07 05:54:32;;;;;;;6.17;5.67;;;19.30;48.90;20.30;101501.00;;;;5031157;28;20675;-50
2022/05/07 05:56:58;;;;;;;5.23;4.80;;;19.20;48.80;20.40;101513.00;;;;5030927;28;20182;-49
2022/05/07 05:59:25;;;;;;;5.83;5.33;;;19.20;48.90;20.30;101497.00;;;;5031271;28;20167;-50
2022/05/07 06:01:50;;;;;;;5.30;4.90;;;19.20;48.90;20.30;101496.00;;;;5031112;28;20577;-48
2022/05/07 06:04:16;;;;;;;5.37;4.97;;;19.20;48.90;20.30;101503.00;;;;5030650;28;20249;-50
2022/05/07 06:06:42;;;;;;;5.40;4.90;;;19.20;48.90;20.30;101500.00;;;;5030313;28;20214;-50
2022/05/07 06:09:07;;;;;;;6.03;4.93;;;19.20;48.90;20.30;101500.00;;;;5030556;28;20230;-50
2022/05/07 06:11:33;;;;;;;5.50;5.07;;;19.20;48.90;20.30;101503.00;;;;5030787;28;20538;-51
2022/05/07 06:13:59;;;;;;;5.60;5.07;;;19.20;48.90;20.30;101506.00;;;;5029686;28;20221;-49
2022/05/07 06:16:25;;;;;;;5.30;4.90;;;19.20;48.90;20.30;101501.00;;;;5034032;28;20174;-50
2022/05/07 06:18:50;;;;;;;5.00;4.60;;;19.20;48.90;20.30;101513.00;;;;5037319;28;20797;-50
2022/05/07 06:21:17;;;;;;;5.53;5.03;;;19.20;48.90;20.30;101499.00;;;;5032343;28;20179;-50
2022/05/07 06:23:43;;;;;;;5.20;4.80;;;19.20;48.90;20.30;101510.00;;;;5030787;28;20670;-50
2022/05/07 06:28:53;;;;;;;5.37;4.87;;;19.20;48.90;20.30;101507.00;;;;5030483;28;20209;-50
2022/05/07 06:31:20;;;;;;;5.50;5.00;;;19.20;49.00;20.30;101510.00;;;;5031076;28;20179;-51
2022/05/07 06:33:45;;;;;;;5.40;4.90;;;19.20;49.10;20.30;101518.00;;;;5030277;28;20171;-50
2022/05/07 06:36:11;;;;;;;5.00;4.60;;;19.20;49.20;20.30;101504.00;;;;5030249;28;20283;-49
2022/05/07 06:38:37;;;;;;;5.40;5.00;;;19.20;49.20;20.30;101508.00;;;;5030208;28;20198;-50
2022/05/07 06:41:04;;;;;;;5.13;4.73;;;19.20;49.20;20.30;101512.00;;;;5030561;28;20186;-49
2022/05/07 06:43:30;;;;;;;5.30;4.90;;;19.20;49.30;20.30;101507.00;;;;5030651;28;20297;-50
2022/05/07 06:45:57;;;;;;;5.27;4.87;;;19.20;49.40;20.30;101504.00;;;;5030022;28;20594;-51
2022/05/07 06:48:23;;;;;;;5.40;4.93;;;19.20;49.50;20.30;101509.00;;;;5030407;28;20175;-50
2022/05/07 06:50:49;;;;;;;5.10;4.70;;;19.20;49.50;20.30;101508.00;;;;5030105;28;20175;-50
2022/05/07 06:53:14;;;;;;;5.30;4.90;;;19.20;49.60;20.30;101506.00;;;;5026794;28;20213;-50
2022/05/07 06:55:56;;;;;;;5.20;4.80;;;19.20;49.50;20.30;101508.00;;;;5024864;28;20214;-50
2022/05/07 06:58:34;;;;;;;5.20;4.80;;;19.20;49.60;20.30;101497.00;;;;5029974;28;20715;-50
2022/05/07 07:01:03;;;;;;;4.87;4.47;;;19.20;49.60;20.30;101507.00;;;;5029145;28;20663;-50
2022/05/07 07:03:30;;;;;;;5.40;4.90;;;19.20;49.50;20.30;101514.00;;;;5029617;28;20183;-52
2022/05/07 07:05:57;;;;;;;5.53;4.63;;;19.20;49.60;20.30;101509.00;;;;5029666;28;20201;-50
2022/05/07 07:08:24;;;;;;;5.03;4.63;;;19.20;49.60;20.30;101509.00;;;;5030008;28;20175;-51
2022/05/07 07:10:49;;;;;;;5.23;4.80;;;19.20;49.60;20.30;101509.00;;;;5029799;28;20171;-50
2022/05/07 07:13:18;;;;;;;5.10;4.70;;;19.20;49.60;20.30;101513.00;;;;5030289;28;20619;-51
2022/05/07 07:15:44;;;;;;;4.80;4.40;;;19.20;49.60;20.20;101513.00;;;;5030425;28;20187;-51
2022/05/07 07:18:10;;;;;;;5.00;4.60;;;19.20;49.60;20.30;101515.00;;;;5030530;28;20183;-50
2022/05/07 07:20:41;;;;;;;5.03;4.53;;;19.20;50.50;20.30;101502.00;;;;5029636;28;20206;-50
2022/05/07 07:23:06;;;;;;;4.97;4.57;;;19.20;50.00;20.30;101510.00;;;;5029626;28;20175;-50
2022/05/07 07:25:32;;;;;;;5.30;4.80;;;19.20;50.00;20.30;101505.00;;;;4964904;28;20194;-49
2022/05/07 07:27:58;;;;;;;5.80;5.20;;;19.20;50.60;20.30;101512.00;;;;5048804;28;20216;-49
2022/05/07 07:30:24;;;;;;;4.80;4.40;;;19.20;50.50;20.30;101508.00;;;;5047185;28;20244;-50
2022/05/07 07:32:50;;;;;;;5.13;4.73;;;19.20;50.50;20.30;101508.00;;;;5049784;28;20190;-48
2022/05/07 07:35:16;;;;;;;4.70;4.30;;;19.20;50.40;20.30;101517.00;;;;5050585;28;20194;-49
2022/05/07 07:37:45;;;;;;;5.00;4.60;;;19.20;50.50;20.30;101502.00;;;;5050150;28;20520;-49
2022/05/07 07:40:13;;;;;;;5.00;4.60;;;19.20;50.50;20.30;101505.00;;;;5050439;28;20182;-48
2022/05/07 07:42:41;;;;;;;5.50;4.80;;;19.20;50.50;20.30;101513.00;;;;5050258;28;20178;-49
2022/05/07 07:47:57;;;;;;;5.10;4.70;;;19.20;50.60;20.30;101507.00;;;;5052667;28;20246;-50
2022/05/07 07:50:24;;;;;;;6.90;4.80;;;19.20;50.70;20.30;101509.00;;;;5052106;28;20197;-49
2022/05/07 07:52:53;;;;;;;6.43;4.80;;;19.20;50.70;20.30;101502.00;;;;5051628;28;20212;-50
2022/05/07 07:55:20;;;;;;;5.73;4.67;;;19.20;51.10;20.30;101506.00;;;;5051310;28;20350;-48
2022/05/07 07:57:45;;;;;;;4.90;4.50;;;19.20;51.30;20.30;101504.00;;;;5050701;28;20189;-48
2022/05/07 08:00:12;;;;;;;5.00;4.50;;;19.20;51.30;20.30;101507.00;;;;5050063;28;20170;-50
2022/05/07 08:02:55;;;;;;;4.47;4.17;;;19.20;51.50;20.40;101511.00;;;;5049904;28;20689;-51
2022/05/07 08:05:29;;;;;;;4.83;4.43;;;19.20;51.50;20.40;101512.00;;;;5040570;28;20198;-49
2022/05/07 08:13:24;;;;;;;5.17;4.50;;;19.30;51.80;20.30;101520.00;;;;5058229;28;20216;-50
2022/05/07 08:15:50;;;;;;;4.67;4.27;;;19.30;51.80;20.40;101510.00;;;;5062092;28;20206;-51
2022/05/07 08:18:16;;;;;;;4.77;4.40;;;19.30;51.80;20.40;101505.00;;;;5050831;28;20569;-48
2022/05/07 08:20:42;;;;;;;4.67;4.17;;;19.30;51.80;20.40;101508.00;;;;5050305;28;20191;-49
2022/05/07 08:23:08;;;;;;;5.03;4.53;;;19.30;51.90;20.40;101517.00;;;;5050036;28;20213;-48
2022/05/07 08:25:35;;;;;;;4.70;4.40;;;19.30;51.80;20.40;101523.00;;;;4974594;28;20222;-49
2022/05/07 08:28:00;;;;;;;4.80;4.40;;;19.30;51.90;20.40;101522.00;;;;5048326;28;20213;-51
2022/05/07 08:30:26;;;;;;;4.93;4.20;;;19.30;52.60;20.40;101511.00;;;;5049624;28;20178;-49
2022/05/07 08:32:52;;;;;;;4.60;4.20;;;19.30;52.00;20.40;101520.00;;;;5050032;28;20174;-48
2022/05/07 08:35:18;;;;;;;4.37;4.07;;;19.40;52.10;20.40;101520.00;;;;5049709;28;20674;-51
2022/05/07 08:37:44;;;;;;;4.30;4.00;;;19.40;52.20;20.40;101519.00;;;;5049131;28;20178;-50
2022/05/07 08:40:14;;;;;;;4.47;4.00;;;19.30;52.20;20.50;101518.00;;;;5049540;28;20276;-50
2022/05/07 08:42:40;;;;;;;4.67;4.23;;;19.40;52.30;20.50;101518.00;;;;5031435;28;20183;-50
2022/05/07 08:45:06;;;;;;;5.10;4.60;;;19.40;52.50;20.50;101514.00;;;;5028229;28;20201;-51
2022/05/07 08:47:32;;;;;;;4.70;4.30;;;19.40;52.50;20.50;101509.00;;;;5029365;28;20557;-50
2022/05/07 08:49:58;;;;;;;4.57;4.17;;;19.40;52.60;20.50;101511.00;;;;5029939;28;20250;-52
2022/05/07 08:52:24;;;;;;;4.50;4.10;;;19.40;52.60;20.50;101501.00;;;;5031984;28;20639;-50
2022/05/07 08:54:50;;;;;;;4.30;3.90;;;19.40;52.60;20.50;101509.00;;;;5030200;28;20221;-52
2022/05/07 08:57:15;;;;;;;4.40;4.00;;;19.40;52.70;20.50;101506.00;;;;5027755;28;20175;-49
2022/05/07 08:59:43;;;;;;;4.10;3.80;;;19.50;52.90;20.50;101433.00;;;;5025440;28;20188;-53
2022/05/07 09:02:09;;;;;;;4.60;4.20;;;19.50;52.80;20.60;101514.00;;;;5023192;28;20204;-49
2022/05/07 09:04:36;;;;;;;4.53;4.20;;;19.50;53.00;20.60;101497.00;;;;5027780;28;20215;-49
2022/05/07 09:07:03;;;;;;;4.30;4.00;;;19.50;53.10;20.60;101516.00;;;;5021508;28;20238;-50
2022/05/07 09:09:31;;;;;;;4.63;4.23;;;19.50;53.20;20.60;101508.00;;;;5028992;28;20627;-49
2022/05/07 09:11:57;;;;;;;4.37;3.90;;;19.50;53.10;20.60;101514.00;;;;5028723;28;20258;-52
2022/05/07 09:14:30;;;;;;;4.77;4.37;;;19.50;53.20;20.60;101505.00;;;;5026947;28;20242;-50
2022/05/07 09:16:58;;;;;;;4.10;3.80;;;19.50;53.30;20.60;101508.00;;;;5028099;28;20177;-51
2022/05/07 09:19:27;;;;;;;4.37;4.07;;;19.50;53.50;20.60;101505.00;;;;5042542;28;20178;-51
2022/05/07 09:22:05;;;;;;;4.27;3.97;;;19.60;53.60;20.60;101499.00;;;;5047861;28;20182;-49
2022/05/07 09:24:31;;;;;;;4.03;3.73;;;19.60;53.60;20.60;101509.00;;;;4981211;28;20193;-50
2022/05/07 09:26:57;;;;;;;4.80;4.37;;;19.60;53.80;20.60;101506.00;;;;5046755;28;20217;-50
2022/05/07 09:29:26;;;;;;;4.90;4.13;;;19.60;53.90;20.70;101501.00;;;;5047677;28;20170;-50
2022/05/07 09:31:53;;;;;;;4.30;4.00;;;19.60;53.80;20.70;101497.00;;;;5048868;28;20208;-49
2022/05/07 09:37:20;;;;;;;9.33;4.43;;;19.60;53.60;20.60;101505.00;;;;5048348;28;20213;-51
2022/05/07 09:39:50;;;;;;;5.63;4.13;;;19.60;53.80;20.60;101498.00;;;;5047284;28;20177;-50
2022/05/07 09:42:18;;;;;;;6.33;4.20;;;19.70;54.00;20.60;101497.00;;;;5048137;28;20174;-50
2022/05/07 09:44:44;;;;;;;6.13;4.33;;;19.70;53.90;20.70;101505.00;;;;5047217;28;20243;-50
2022/05/07 09:47:12;;;;;;;4.53;3.90;;;19.70;54.00;20.70;101475.00;;;;5048033;28;20209;-50
2022/05/07 09:52:29;;;;;;;5.53;4.00;;;19.70;54.10;20.70;101499.00;;;;5048454;28;20162;-50
2022/05/07 09:57:40;;;;;;;4.33;3.93;;;19.70;54.30;20.70;101493.00;;;;5052301;28;20225;-51
2022/05/07 10:00:08;;;;;;;4.77;4.07;;;19.80;54.40;20.80;101493.00;;;;5053713;28;20249;-50
2022/05/07 10:02:56;;;;;;;5.40;4.23;;;19.80;55.00;20.80;101481.00;;;;5048278;28;20197;-51
2022/05/07 10:05:32;;;;;;;5.33;4.10;;;19.70;54.30;20.80;101489.00;;;;5047853;28;20195;-53
2022/05/07 10:08:17;;;;;;;4.47;4.07;;;19.80;54.40;20.80;101496.00;;;;5046575;28;20725;-51
2022/05/07 10:10:44;;;;;;;4.60;4.20;;;19.80;54.30;20.80;101485.00;;;;5046045;28;20167;-50
2022/05/07 10:13:10;;;;;;;4.03;3.73;;;19.80;54.30;20.80;101488.00;;;;5060957;28;20181;-50
2022/05/07 10:15:35;;;;;;;5.10;4.20;;;19.80;54.40;20.80;101490.00;;;;5066632;28;20255;-51
2022/05/07 10:18:07;;;;;;;4.80;4.30;;;19.80;54.40;20.80;101491.00;;;;5063480;28;20536;-50
2022/05/07 10:20:46;;;;;;;4.30;3.97;;;19.90;54.50;20.90;101500.00;;;;5048089;28;20173;-50
2022/05/07 10:23:14;;;;;;;4.37;4.03;;;19.90;54.50;20.90;101490.00;;;;5047741;28;20647;-49
2022/05/07 10:25:41;;;;;;;4.67;4.03;;;19.90;54.50;20.90;101489.00;;;;4969576;28;20206;-49
2022/05/07 10:28:14;;;;;;;4.37;4.00;;;19.90;54.50;20.90;101485.00;;;;5048136;28;20202;-50
2022/05/07 10:30:51;;;;;;;4.10;3.80;;;19.90;54.50;20.90;101477.00;;;;5048054;28;20525;-52
2022/05/07 10:33:18;;;;;;;5.20;4.20;;;19.90;54.50;20.90;101478.00;;;;5048214;28;20258;-49
2022/05/07 10:35:48;;;;;;;4.47;4.00;;;19.90;54.50;21.00;101485.00;;;;5048390;28;20198;-50
2022/05/07 10:38:14;;;;;;;6.40;4.87;;;20.00;55.40;21.00;101472.00;;;;5051557;28;20694;-50
2022/05/07 10:40:50;;;;;;;9.93;4.87;;;20.00;55.30;21.00;101470.00;;;;5051444;28;20186;-51
2022/05/07 10:43:33;;;;;;;6.87;4.70;;;20.10;55.30;21.10;101472.00;;;;5051636;28;20173;-52
2022/05/07 10:46:03;;;;;;;6.37;4.77;;;20.10;55.00;21.10;101481.00;;;;5050807;28;20174;-50
2022/05/07 10:48:29;;;;;;;5.40;4.90;;;20.10;55.10;21.10;101467.00;;;;5051045;28;20493;-50
2022/05/07 10:50:59;;;;;;;6.00;4.70;;;20.10;55.00;21.10;101456.00;;;;5051362;28;20363;-50
2022/05/07 10:53:36;;;;;;;5.43;4.93;;;20.10;55.00;21.10;101468.00;;;;5050276;28;20269;-51
2022/05/07 10:56:01;;;;;;;7.97;5.10;;;20.20;55.00;21.10;101465.00;;;;5051132;28;20590;-50
2022/05/07 10:58:29;;;;;;;9.40;5.93;;;20.20;55.00;21.20;101396.00;;;;5051185;28;20175;-51
2022/05/07 11:00:57;;;;;;;6.77;5.60;;;20.20;55.00;21.20;101451.00;;;;5050948;28;20170;-51
2022/05/07 11:03:27;;;;;;;6.23;5.33;;;20.20;55.60;21.20;101454.00;;;;5050811;28;20175;-51
2022/05/07 11:05:59;;;;;;;6.10;5.33;;;20.30;55.10;21.20;101457.00;;;;5053949;28;20193;-50
2022/05/07 11:08:29;;;;;;;6.93;5.53;;;20.30;55.10;21.20;101447.00;;;;5051252;28;20232;-51
2022/05/07 11:11:07;;;;;;;6.40;5.57;;;20.30;54.90;21.30;101450.00;;;;5051490;28;20191;-50
2022/05/07 11:13:47;;;;;;;6.97;5.53;;;20.40;55.10;21.30;101445.00;;;;5051963;28;20367;-51
2022/05/07 11:16:13;;;;;;;5.20;4.67;;;20.40;55.30;21.30;101450.00;;;;5050553;28;20690;-49
2022/05/07 11:18:41;;;;;;;6.53;5.20;;;20.40;55.20;21.40;101455.00;;;;5052079;28;20210;-50